Latest Weather Observations for Lochington

IDQ60801

Issued at 9:32 pm EST Saturday 18 April 2015 (issued every 30 minutes, with the page automatically refreshed every 10 minutes)

About weather observations | Map of weather stations | Latest weather observations for QLD | Other Formats
Station Details ID: 035139 Name: LOCHINGTON Lat: -23.94 Lon: 147.53 Height: 267.19 m
Data from the previous 72 hours. | See also: Recent months at Lochington
Date/Time
EST
Temp
°C
App
Temp
°C
Dew
Point
Rel
Hum
%
Delta-T
°C
Wind Press
QNH
hPa
Press
MSL
hPa
Rain
since 9 am
mm
Dir
 
Spd
km/h
Gust
km/h
Spd
kts
Gust
kts
18/09:30pm 22.7 23.7 16.9 70 3.6 E 7 11 4 6 1018.8 1017.6 0.0
18/09:00pm 22.9 24.0 17.1 70 3.6 E 7 11 4 6 1018.7 1017.5 0.0
18/08:30pm 22.9 23.5 16.9 69 3.7 E 9 11 5 6 1018.4 1017.2 0.0
18/08:00pm 22.9 23.7 16.4 67 4.0 ESE 7 9 4 5 1018.2 1017.0 0.0
18/07:30pm 23.2 23.9 16.0 64 4.4 E 7 9 4 5 1017.6 1016.4 0.0
18/07:00pm 24.3 24.8 16.6 62 4.8 ESE 9 15 5 8 1017.3 1016.1 0.0
18/06:30pm 24.9 24.9 16.3 59 5.3 ESE 11 17 6 9 1017.1 1015.9 0.0
18/06:00pm 26.1 25.4 16.4 55 6.0 ESE 15 24 8 13 1016.8 1015.5 0.0
18/05:30pm 27.4 26.4 16.7 52 6.7 E 17 24 9 13 1016.5 1015.2 0.0
18/05:00pm 27.8 27.9 16.4 50 7.1 E 11 19 6 10 1016.4 1015.1 0.0
18/04:30pm 29.3 29.8 15.1 42 8.8 ENE 6 9 3 5 1016.2 1014.9 0.0
18/04:00pm 28.7 29.3 15.2 43 8.3 ENE 6 11 3 6 1016.2 1014.9 0.0
18/03:30pm 28.5 29.3 15.8 46 7.9 NNE 6 11 3 6 1016.2 1014.9 0.0
18/03:00pm 28.6 28.4 14.8 43 8.5 NE 9 17 5 9 1016.4 1015.1 0.0
18/02:30pm 28.6 28.3 15.5 45 8.1 NE 11 20 6 11 1016.6 1015.3 0.0
18/02:00pm 28.0 26.9 15.3 46 7.8 NNE 15 22 8 12 1016.9 1015.6 0.0
18/01:30pm 28.1 26.8 15.7 46 7.7 NE 17 24 9 13 1017.3 1016.1 0.0
18/01:00pm 27.7 26.6 16.3 49 7.1 NE 17 26 9 14 1017.8 1016.6 0.0
18/12:30pm 27.8 27.2 16.7 50 7.0 ENE 15 24 8 13 1018.3 1017.1 0.0
18/12:00pm 26.4 25.6 16.1 53 6.4 NE 15 24 8 13 1018.6 1017.4 0.0
18/11:30am 26.8 25.2 16.1 52 6.6 NE 19 30 10 16 1019.2 1018.0 0.0
18/11:00am 26.7 25.8 16.9 55 6.1 ENE 17 24 9 13 1019.8 1018.6 0.0
18/10:30am 25.1 23.9 17.1 61 5.0 ENE 19 26 10 14 1020.2 1018.9 0.0
18/10:00am 24.5 23.3 17.0 63 4.7 E 19 26 10 14 1020.6 1019.4 0.0
18/09:30am 23.5 25.2 18.6 74 3.1 ENE 7 15 4 8 1021.1 1019.9 0.0
18/09:00am 22.1 22.5 18.1 78 2.5 ENE 13 22 7 12 1021.3 1020.1 0.0
18/08:30am 22.1 23.2 18.1 78 2.5 ENE 9 15 5 8 1020.9 1019.7 0.0
18/08:00am 21.0 23.3 18.6 86 1.5 NE 4 7 2 4 1020.5 1019.3 0.0
18/07:30am 20.6 23.5 18.2 86 1.5 CALM 0 0 0 0 1020.1 1018.8 0.0
18/07:00am 20.1 22.1 17.9 87 1.4 E 4 7 2 4 1019.5 1018.3 0.0
18/06:30am 19.7 21.0 17.5 87 1.4 E 7 11 4 6 1019.2 1018.0 0.0
18/06:00am 20.1 21.1 17.7 86 1.5 ENE 9 13 5 7 1018.9 1017.7 0.0
18/05:30am 19.8 20.6 17.4 86 1.5 ENE 9 13 5 7 1018.7 1017.5 0.0
18/05:00am 19.9 20.7 17.3 85 1.6 ENE 9 13 5 7 1018.4 1017.2 0.0
18/04:30am 20.4 21.1 17.0 81 2.1 ENE 9 15 5 8 1018.3 1017.1 0.0
18/04:00am 21.1 21.1 17.3 79 2.4 ENE 13 20 7 11 1018.1 1016.9 0.0
18/03:30am 21.3 21.3 17.3 78 2.5 ENE 13 22 7 12 1018.1 1016.9 0.0
18/03:00am 21.2 21.0 16.6 75 2.8 ENE 13 19 7 10 1018.2 1017.0 0.0
18/02:30am 21.2 21.4 16.8 76 2.7 ENE 11 17 6 9 1018.4 1017.2 0.0
18/02:00am 21.1 22.0 16.5 75 2.8 ENE 7 13 4 7 1018.8 1017.6 0.0
18/01:30am 21.0 21.2 15.8 72 3.1 ENE 9 11 5 6 1018.7 1017.5 0.0
18/01:00am 21.6 22.0 15.4 68 3.7 ENE 7 9 4 5 1019.2 1018.0 0.0
18/12:30am 21.9 22.6 15.7 68 3.8 ENE 6 7 3 4 1019.7 1018.5 0.0
18/12:00am 22.1 22.6 15.5 66 4.0 ENE 7 11 4 6 1019.9 1018.7 0.0
 
Date/Time
EST
Temp
°C
App
Temp
°C
Dew
Point
Rel
Hum
%
Delta-T
°C
Wind Press
QNH
hPa
Press
MSL
hPa
Rain
since 9 am
mm
Dir
 
Spd
km/h
Gust
km/h
Spd
kts
Gust
kts
17/11:30pm 22.3 22.8 14.9 63 4.4 E 6 7 3 4 1020.2 1018.9 0.0
17/11:00pm 23.3 23.9 15.4 61 4.8 E 6 9 3 5 1020.4 1019.2 0.0
17/10:30pm 23.3 23.1 14.8 59 5.1 ENE 9 13 5 7 1020.1 1018.8 0.0
17/10:00pm 23.1 22.9 14.7 59 5.0 ENE 9 13 5 7 1019.5 1018.3 0.0
17/09:30pm 23.1 23.0 14.9 60 4.9 ENE 9 13 5 7 1019.3 1018.1 0.0
17/09:00pm 23.1 23.0 14.9 60 4.9 ENE 9 13 5 7 1019.0 1017.8 0.0
17/08:30pm 22.1 22.2 14.5 62 4.5 E 7 9 4 5 1018.4 1017.2 0.0
17/08:00pm 22.2 22.3 13.8 59 4.9 E 6 9 3 5 1018.1 1016.9 0.0
17/07:30pm 23.5 23.5 14.2 56 5.5 ENE 7 9 4 5 1017.8 1016.6 0.0
17/07:00pm 24.5 23.8 14.3 53 6.1 ENE 11 15 6 8 1017.6 1016.4 0.0
17/06:30pm 24.8 24.6 14.6 53 6.1 ENE 9 15 5 8 1017.4 1016.2 0.0
17/06:00pm 25.9 24.3 15.0 51 6.6 ENE 17 24 9 13 1017.0 1015.8 0.0
17/05:30pm 26.5 24.3 14.3 47 7.4 ENE 19 28 10 15 1016.9 1015.6 0.0
17/05:00pm 27.7 25.7 14.0 43 8.3 E 17 28 9 15 1016.6 1015.3 0.0
17/04:30pm 27.8 25.0 14.4 43 8.1 ENE 22 32 12 17 1016.5 1015.2 0.0
17/04:00pm 28.3 26.5 14.5 43 8.4 ENE 17 24 9 13 1016.5 1015.2 0.0
17/03:30pm 27.7 26.7 14.7 45 7.9 ENE 13 19 7 10 1016.7 1015.4 0.0
17/03:00pm 28.0 27.5 15.0 45 8.0 ENE 11 22 6 12 1016.9 1015.6 0.0
17/02:30pm 27.8 26.1 14.8 45 7.9 E 17 26 9 14 1017.1 1015.9 0.0
17/02:00pm 28.1 26.4 14.7 44 8.2 ENE 17 28 9 15 1017.4 1016.2 0.0
17/01:30pm 27.8 25.5 14.1 43 8.3 ENE 19 30 10 16 1017.6 1016.4 0.0
17/01:00pm 28.5 25.5 13.6 40 8.9 E 22 33 12 18 1018.0 1016.8 0.0
17/12:30pm 29.1 26.9 13.3 37 9.5 NE 17 28 9 15 1018.7 1017.5 0.0
17/12:00pm 28.4 26.0 13.9 41 8.7 ENE 19 41 10 22 1019.4 1018.2 0.0
17/11:30am 27.1 25.2 14.1 44 7.8 ENE 17 28 9 15 1020.3 1019.1 0.0
17/11:00am 27.0 24.9 14.7 47 7.5 E 19 30 10 16 1020.9 1019.7 0.0
17/10:30am 26.8 25.8 15.5 50 7.0 ENE 15 26 8 14 1021.4 1020.2 0.0
17/10:00am 25.0 23.3 14.8 53 6.1 ENE 17 22 9 12 1021.9 1020.7 0.0
17/09:30am 25.3 24.7 15.6 55 5.9 E 13 26 7 14 1022.3 1021.1 0.0
17/09:00am 23.7 23.1 14.7 57 5.4 ESE 11 20 6 11 1022.4 1021.2 0.0
17/08:30am 22.7 22.5 14.8 61 4.7 ESE 9 15 5 8 1022.4 1021.2 0.0
17/08:00am 21.3 22.4 15.6 70 3.4 SE 4 7 2 4 1022.6 1021.4 0.0
17/07:30am 18.5 20.3 15.4 82 1.8 CALM 0 4 0 2 1022.4 1021.2 0.0
17/07:00am 16.1 16.6 13.9 87 1.3 WNW 4 6 2 3 1022.2 1021.0 0.0
17/06:30am 14.9 14.8 13.4 91 0.8 WNW 6 6 3 3 1021.8 1020.6 0.0
17/06:00am 15.3 16.3 13.3 88 1.1 CALM 0 0 0 0 1021.3 1020.1 0.0
17/05:30am 15.2 16.2 13.1 87 1.2 CALM 0 0 0 0 1021.1 1019.9 0.0
17/05:00am 16.1 16.7 13.0 82 1.7 E 2 4 1 2 1020.8 1019.6 0.0
17/04:30am 17.9 19.0 15.5 86 1.4 E 4 6 2 3 1020.6 1019.4 0.0
17/04:00am 17.4 18.0 15.2 87 1.3 ESE 6 6 3 3 1020.7 1019.5 0.0
17/03:30am 17.5 18.0 15.0 85 1.5 E 6 7 3 4 1020.5 1019.3 0.0
17/03:00am 18.1 18.5 14.8 81 1.9 E 6 6 3 3 1020.9 1019.7 0.0
17/02:30am 18.5 18.8 15.0 80 2.1 E 7 7 4 4 1020.9 1019.7 0.0
17/02:00am 19.1 20.0 15.0 77 2.4 E 4 6 2 3 1021.2 1020.0 0.0
17/01:30am 19.9 20.3 15.3 75 2.7 ENE 7 9 4 5 1021.2 1020.0 0.0
17/01:00am 19.9 20.1 14.7 72 3.1 E 7 11 4 6 1021.5 1020.3 0.0
17/12:30am 20.9 20.8 15.0 69 3.5 ENE 9 11 5 6 1021.5 1020.3 0.0
17/12:00am 21.3 21.4 15.4 69 3.5 ENE 9 13 5 7 1021.6 1020.4 0.0
 
Date/Time
EST
Temp
°C
App
Temp
°C
Dew
Point
Rel
Hum
%
Delta-T
°C
Wind Press
QNH
hPa
Press
MSL
hPa
Rain
since 9 am
mm
Dir
 
Spd
km/h
Gust
km/h
Spd
kts
Gust
kts
16/11:30pm 20.9 21.0 14.5 67 3.8 ENE 7 11 4 6 1021.9 1020.7 0.0
16/11:00pm 21.6 21.1 13.8 61 4.6 ENE 9 11 5 6 1022.0 1020.8 0.0
16/10:30pm 22.1 21.1 12.4 54 5.6 ENE 9 13 5 7 1022.1 1020.9 0.0
16/10:00pm 22.5 20.5 10.3 46 6.7 ENE 11 13 6 7 1022.0 1020.8 0.0
16/09:30pm 21.4 20.3 8.3 43 7.0 ENE 4 6 2 3 1021.9 1020.7 0.0
16/09:00pm 22.1 20.5 7.9 40 7.5 ENE 6 7 3 4 1021.8 1020.6 0.0
16/08:30pm 23.8 21.6 7.8 36 8.5 ENE 9 13 5 7 1021.6 1020.4 0.0
16/08:00pm 23.9 21.8 8.3 37 8.4 ENE 9 13 5 7 1021.3 1020.1 0.0
16/07:30pm 23.1 21.6 8.4 39 7.9 ESE 6 6 3 3 1020.8 1019.6 0.0
16/07:00pm 23.7 22.1 7.8 36 8.5 ESE 6 7 3 4 1020.4 1019.2 0.0
16/06:30pm 24.5 22.6 7.6 34 9.0 ESE 7 11 4 6 1019.8 1018.6 0.0
16/06:00pm 26.2 24.0 7.7 31 10.0 ESE 9 15 5 8 1019.6 1018.4 0.0
16/05:30pm 28.0 24.8 8.3 29 10.8 ESE 15 24 8 13 1019.3 1018.1 0.0
16/05:00pm 29.0 25.5 8.7 28 11.3 ESE 17 26 9 14 1019.2 1018.0 0.0
16/04:30pm 30.1 26.5 8.5 26 12.1 E 17 28 9 15 1019.0 1017.8 0.0
16/04:00pm 30.7 26.6 7.8 24 12.7 E 19 26 10 14 1019.0 1017.8 0.0
16/03:30pm 30.8 27.1 7.9 24 12.7 ESE 17 26 9 14 1019.0 1017.8 0.0
16/03:00pm 31.1 27.2 8.8 25 12.5 ESE 19 30 10 16 1019.1 1017.9 0.0
16/02:30pm 30.7 28.2 9.6 27 12.0 E 13 20 7 11 1019.4 1018.2 0.0
16/02:00pm 30.7 28.2 9.6 27 12.0 ESE 13 35 7 19 1019.8 1018.6 0.0
16/01:30pm 30.2 27.3 9.7 28 11.7 E 15 24 8 13 1020.3 1019.1 0.0
16/01:00pm 30.2 27.2 10.7 30 11.3 ESE 17 32 9 17 1020.9 1019.7 0.0
16/12:30pm 28.8 25.3 10.9 33 10.3 E 20 35 11 19 1021.4 1020.2 0.0
16/12:00pm 29.6 27.0 12.1 34 10.3 E 17 28 9 15 1022.0 1020.8 0.0
16/11:30am 28.1 24.8 10.8 34 9.9 ENE 19 32 10 17 1022.8 1021.6 0.0
16/11:00am 27.5 24.3 11.1 36 9.4 E 19 28 10 15 1023.6 1022.5 0.0
16/10:30am 26.7 23.9 11.2 38 8.9 ESE 17 26 9 14 1024.2 1023.0 0.0
16/10:00am 25.9 23.8 13.7 47 7.2 E 17 24 9 13 1024.8 1023.6 0.0
16/09:30am 24.8 23.7 14.3 52 6.3 E 13 20 7 11 1025.0 1023.8 0.0
16/09:00am 23.6 23.1 14.9 58 5.2 ESE 11 19 6 10 1025.1 1023.9 0.0
16/08:30am 22.9 23.2 15.0 61 4.8 SE 7 11 4 6 1024.7 1023.5 0.0
16/08:00am 21.2 21.9 14.6 66 3.9 ESE 4 6 2 3 1024.5 1023.3 0.0
16/07:30am 17.0 17.5 12.7 76 2.4 NW 2 4 1 2 1024.4 1023.2 0.0
16/07:00am 14.6 15.0 11.2 80 1.8 CALM 0 0 0 0 1024.4 1023.2 0.0
16/06:30am 13.9 14.1 10.7 81 1.7 CALM 0 0 0 0 1024.2 1023.0 0.0
16/06:00am 14.2 14.4 10.6 79 1.9 CALM 0 0 0 0 1023.8 1022.7 0.0
16/05:30am 14.6 14.9 10.8 78 2.0 CALM 0 0 0 0 1023.6 1022.5 0.0
16/05:00am 14.7 14.9 10.7 77 2.1 CALM 0 0 0 0 1023.5 1022.4 0.0
16/04:30am 15.4 15.8 11.2 76 2.3 CALM 0 0 0 0 1023.1 1021.9 0.0
16/04:00am 15.4 15.8 11.2 76 2.3 CALM 0 0 0 0 1023.0 1021.8 0.0
16/03:30am 15.9 16.3 11.3 74 2.5 CALM 0 0 0 0 1022.9 1021.7 0.0
16/03:00am 16.9 17.1 11.8 72 2.8 E 2 4 1 2 1022.9 1021.7 0.0
16/02:30am 17.6 17.5 12.1 70 3.1 NE 4 6 2 3 1023.0 1021.8 0.0
16/02:00am 18.3 18.3 12.5 69 3.3 ENE 4 6 2 3 1023.1 1021.9 0.0
16/01:30am 19.4 19.1 12.7 65 3.8 E 6 6 3 3 1023.4 1022.2 0.0
16/01:00am 19.0 18.4 11.6 62 4.1 E 6 6 3 3 1023.5 1022.4 0.0
16/12:30am 20.3 19.4 11.5 57 4.9 E 7 9 4 5 1023.7 1022.6 0.0
16/12:00am 21.4 19.8 11.7 54 5.5 ENE 11 17 6 9 1023.6 1022.5 0.0
 
Date/Time
EST
Temp
°C
App
Temp
°C
Dew
Point
Rel
Hum
%
Delta-T
°C
Wind Press
QNH
hPa
Press
MSL
hPa
Rain
since 9 am
mm
Dir
 
Spd
km/h
Gust
km/h
Spd
kts
Gust
kts
15/11:30pm 18.3 18.3 9.9 58 4.5 CALM 0 0 0 0 1023.4 1022.2 0.0
15/11:00pm 18.5 18.5 9.8 57 4.7 CALM 0 0 0 0 1023.5 1022.4 0.0
15/10:30pm 19.2 19.2 9.7 54 5.1 CALM 0 0 0 0 1023.5 1022.4 0.0
15/10:00pm 20.0 19.9 9.6 51 5.6 CALM 0 0 0 0 1023.5 1022.4 0.0

Other Formats:

Comma delimited format used in spreadsheet applications
http://www.bom.gov.au/fwo/IDQ60801/IDQ60801.94399.axf

JavaScript Object Notation format (JSON) in row-major order
http://www.bom.gov.au/fwo/IDQ60801/IDQ60801.94399.json